Airfield :
LOGIN :

Register | Disclaimer

   EN    FR    IT 

 










Legend :    VFR   Marginal VFR   IFR   Intensive IFR   Very Intensive IFR
Visi :
Ceiling :
>= 8 km
>= 3000ft
5 to 8 km
1000 to 3000 ft
1500m to 5 km
500 to 1000 ft
800 to 1500m
200 to 500 ft
< 800m
< 200 ft
Symbols :   Thunderstorms  Fog  Heavy snow  Heavy precipitations  Wind > 20 kt
SIGMETs :     Misc.  Thunderstorms  Icing  Turbulence  Mountain Waves  Volcanic Ashes







- Airport Elevation : 26 ft
- IATA code : GLA
- Download approach charts


EGPF - Glasgow

CURRENT METAR :
  • 211750Z AUTO 17005KT 9999 BKN021 11/08 Q1023

EXPIRED METARs :
  • 211720Z AUTO 15006KT 110V190 9999 BKN020 12/08 Q1022
  • 211650Z AUTO 17009KT 120V200 9999 BKN020 12/08 Q1022
  • 211620Z AUTO 18006KT 140V210 9999 BKN019 13/09 Q1022
  • 211550Z AUTO 16009KT 9999 BKN020 13/09 Q1021
  • 211520Z AUTO 19012KT 9999 BKN021 BKN026 13/09 Q1021

TAF TAF EGPF
Valid from the 21 at 18:00 until the 22 at 18:00 UTC


211704Z 2118/2218 19009KT 9999 SCT012 BKN035
TEMPO 2120/2202 BKN012
PROB30
TEMPO 2207/2212 21015G25KT 8000 -RA BKN012
ATIS : +44 141 887 7449
No reported NOTAMs for that airfield.



MET'MAP, your aeronautical weather chart ! - Copyright ORBIFLY December 2007 - Disclaimer

ORBIFLY MET'MAP TEAM :

Programming & Development : Alexandra Zaïnal
Concept & Development : Baudouin d'Aumeries
Co-Development & Prog : Marc-Olivier Méhu
Technical & hardware support : Manuel Goepfert

Contact : metmap@orbifly.com




SOURCES & CREDITS :

   NOAA